sensor_id;sensor_type;location;lat;lon;timestamp;temperature;humidity
22984;DHT22;11658;48.908;9.140;2023-02-28T04:02:01;-2.10;99.90
22984;DHT22;11658;48.908;9.140;2023-02-28T04:04:28;-2.10;99.90
22984;DHT22;11658;48.908;9.140;2023-02-28T04:07:05;-2.00;99.90
22984;DHT22;11658;48.908;9.140;2023-02-28T04:09:30;-2.00;99.90
22984;DHT22;11658;48.908;9.140;2023-02-28T04:11:56;-2.00;99.90
22984;DHT22;11658;48.908;9.140;2023-02-28T04:14:22;-2.00;99.90
22984;DHT22;11658;48.908;9.140;2023-02-28T04:16:48;-1.90;99.90
22984;DHT22;11658;48.908;9.140;2023-02-28T04:19:14;-1.80;99.90
22984;DHT22;11658;48.908;9.140;2023-02-28T04:21:42;-1.90;99.90
22984;DHT22;11658;48.908;9.140;2023-02-28T04:24:22;-1.80;99.90
22984;DHT22;11658;48.908;9.140;2023-02-28T04:26:51;-1.70;99.90
22984;DHT22;11658;48.908;9.140;2023-02-28T04:29:25;-1.80;99.90
22984;DHT22;11658;48.908;9.140;2023-02-28T04:31:52;-1.70;99.90
22984;DHT22;11658;48.908;9.140;2023-02-28T04:34:23;-1.70;99.90
22984;DHT22;11658;48.908;9.140;2023-02-28T04:36:49;-1.60;99.90
22984;DHT22;11658;48.908;9.140;2023-02-28T04:39:16;-1.50;99.90
22984;DHT22;11658;48.908;9.140;2023-02-28T04:41:44;-1.50;99.90
22984;DHT22;11658;48.908;9.140;2023-02-28T04:44:10;-1.50;99.90
22984;DHT22;11658;48.908;9.140;2023-02-28T04:46:35;-1.50;99.90
22984;DHT22;11658;48.908;9.140;2023-02-28T04:49:01;-1.50;99.90
22984;DHT22;11658;48.908;9.140;2023-02-28T04:51:26;-1.40;99.90
22984;DHT22;11658;48.908;9.140;2023-02-28T04:53:52;-1.40;99.90
22984;DHT22;11658;48.908;9.140;2023-02-28T04:56:18;-1.50;99.90
22984;DHT22;11658;48.908;9.140;2023-02-28T04:58:44;-1.50;99.90
22984;DHT22;11658;48.908;9.140;2023-02-28T05:01:29;-1.50;99.90
22984;DHT22;11658;48.908;9.140;2023-02-28T05:03:57;-1.50;99.90
22984;DHT22;11658;48.908;9.140;2023-02-28T05:06:24;-1.50;99.90
22984;DHT22;11658;48.908;9.140;2023-02-28T05:08:51;-1.40;99.90
22984;DHT22;11658;48.908;9.140;2023-02-28T05:11:22;-1.40;99.90
22984;DHT22;11658;48.908;9.140;2023-02-28T05:13:49;-1.40;99.90
22984;DHT22;11658;48.908;9.140;2023-02-28T05:16:15;-1.40;99.90
22984;DHT22;11658;48.908;9.140;2023-02-28T05:18:41;-1.30;99.90
22984;DHT22;11658;48.908;9.140;2023-02-28T05:21:29;-1.40;99.90
22984;DHT22;11658;48.908;9.140;2023-02-28T05:23:57;-1.40;99.90
22984;DHT22;11658;48.908;9.140;2023-02-28T05:26:24;-1.40;99.90
22984;DHT22;11658;48.908;9.140;2023-02-28T05:28:50;-1.40;99.90
22984;DHT22;11658;48.908;9.140;2023-02-28T05:31:15;-1.40;99.90
22984;DHT22;11658;48.908;9.140;2023-02-28T05:33:41;-1.40;99.90
22984;DHT22;11658;48.908;9.140;2023-02-28T05:36:07;-1.40;99.90
22984;DHT22;11658;48.908;9.140;2023-02-28T05:38:33;-1.40;99.90
22984;DHT22;11658;48.908;9.140;2023-02-28T05:40:58;-1.30;99.90
22984;DHT22;11658;48.908;9.140;2023-02-28T05:43:24;-1.30;99.90
22984;DHT22;11658;48.908;9.140;2023-02-28T05:45:50;-1.30;99.90
22984;DHT22;11658;48.908;9.140;2023-02-28T05:48:16;-1.30;99.90
22984;DHT22;11658;48.908;9.140;2023-02-28T05:50:43;-1.30;99.90
22984;DHT22;11658;48.908;9.140;2023-02-28T05:53:11;-1.20;99.90
22984;DHT22;11658;48.908;9.140;2023-02-28T05:55:36;-1.20;99.90
22984;DHT22;11658;48.908;9.140;2023-02-28T05:58:02;-1.20;99.90
22984;DHT22;11658;48.908;9.140;2023-02-28T06:00:28;-1.20;99.90
22984;DHT22;11658;48.908;9.140;2023-02-28T06:02:53;-1.20;99.90
22984;DHT22;11658;48.908;9.140;2023-02-28T06:05:22;-0.80;99.90
22984;DHT22;11658;48.908;9.140;2023-02-28T06:07:47;-1.20;99.90
22984;DHT22;11658;48.908;9.140;2023-02-28T06:10:13;-1.20;99.90
22984;DHT22;11658;48.908;9.140;2023-02-28T06:12:39;-1.20;99.90
22984;DHT22;11658;48.908;9.140;2023-02-28T06:15:07;-1.20;99.90
22984;DHT22;11658;48.908;9.140;2023-02-28T06:17:33;-1.20;99.90
22984;DHT22;11658;48.908;9.140;2023-02-28T06:19:59;-1.10;99.90
22984;DHT22;11658;48.908;9.140;2023-02-28T06:22:24;-1.00;99.90
22984;DHT22;11658;48.908;9.140;2023-02-28T06:24:50;-1.10;99.90
22984;DHT22;11658;48.908;9.140;2023-02-28T06:27:15;-1.00;99.90
22984;DHT22;11658;48.908;9.140;2023-02-28T06:29:41;-1.00;99.90
22984;DHT22;11658;48.908;9.140;2023-02-28T06:32:06;-1.10;99.90
22984;DHT22;11658;48.908;9.140;2023-02-28T06:34:32;-1.00;99.90
22984;DHT22;11658;48.908;9.140;2023-02-28T06:36:59;-1.00;99.90
22984;DHT22;11658;48.908;9.140;2023-02-28T06:39:30;-1.00;99.90
22984;DHT22;11658;48.908;9.140;2023-02-28T06:41:57;-1.10;99.90
22984;DHT22;11658;48.908;9.140;2023-02-28T06:44:23;-1.10;99.90
22984;DHT22;11658;48.908;9.140;2023-02-28T06:46:49;-1.00;99.90
22984;DHT22;11658;48.908;9.140;2023-02-28T06:49:15;-1.00;99.90
22984;DHT22;11658;48.908;9.140;2023-02-28T06:51:43;-1.00;99.90
22984;DHT22;11658;48.908;9.140;2023-02-28T06:54:11;-1.00;99.90
22984;DHT22;11658;48.908;9.140;2023-02-28T06:56:37;-0.80;99.90
22984;DHT22;11658;48.908;9.140;2023-02-28T06:59:03;-0.80;99.90
22984;DHT22;11658;48.908;9.140;2023-02-28T07:01:29;-0.80;99.90
22984;DHT22;11658;48.908;9.140;2023-02-28T07:03:57;-0.80;99.90
22984;DHT22;11658;48.908;9.140;2023-02-28T07:06:22;-0.80;99.90
22984;DHT22;11658;48.908;9.140;2023-02-28T07:08:50;-0.80;99.90
22984;DHT22;11658;48.908;9.140;2023-02-28T07:11:16;-0.80;99.90
22984;DHT22;11658;48.908;9.140;2023-02-28T07:13:41;-0.80;99.90
22984;DHT22;11658;48.908;9.140;2023-02-28T07:16:10;-0.80;99.90
22984;DHT22;11658;48.908;9.140;2023-02-28T07:18:36;-0.90;99.90
22984;DHT22;11658;48.908;9.140;2023-02-28T07:21:04;-1.00;99.90
22984;DHT22;11658;48.908;9.140;2023-02-28T07:23:30;-1.00;99.90
22984;DHT22;11658;48.908;9.140;2023-02-28T07:25:56;-1.00;99.90
22984;DHT22;11658;48.908;9.140;2023-02-28T07:28:22;-1.00;99.90
22984;DHT22;11658;48.908;9.140;2023-02-28T07:30:48;-1.00;99.90
22984;DHT22;11658;48.908;9.140;2023-02-28T07:33:14;-0.90;99.90
22984;DHT22;11658;48.908;9.140;2023-02-28T07:35:40;-0.80;99.90
22984;DHT22;11658;48.908;9.140;2023-02-28T07:38:06;-0.80;99.90
22984;DHT22;11658;48.908;9.140;2023-02-28T07:40:33;-0.90;99.90
22984;DHT22;11658;48.908;9.140;2023-02-28T07:43:00;-0.70;99.90
22984;DHT22;11658;48.908;9.140;2023-02-28T07:45:26;-0.70;99.90
22984;DHT22;11658;48.908;9.140;2023-02-28T07:47:52;-0.70;99.90
22984;DHT22;11658;48.908;9.140;2023-02-28T07:50:18;-0.60;99.90
22984;DHT22;11658;48.908;9.140;2023-02-28T07:52:43;-0.70;99.90
22984;DHT22;11658;48.908;9.140;2023-02-28T07:55:10;-0.60;99.90
22984;DHT22;11658;48.908;9.140;2023-02-28T07:57:36;-0.50;99.90
22984;DHT22;11658;48.908;9.140;2023-02-28T08:00:04;-0.50;99.90
22984;DHT22;11658;48.908;9.140;2023-02-28T08:02:30;-0.60;99.90
22984;DHT22;11658;48.908;9.140;2023-02-28T08:04:56;-0.60;99.90
22984;DHT22;11658;48.908;9.140;2023-02-28T08:07:24;-0.60;99.90
22984;DHT22;11658;48.908;9.140;2023-02-28T08:09:49;-0.70;99.90
22984;DHT22;11658;48.908;9.140;2023-02-28T08:12:15;-0.50;99.90
22984;DHT22;11658;48.908;9.140;2023-02-28T08:14:41;-0.40;99.90
22984;DHT22;11658;48.908;9.140;2023-02-28T08:17:06;-0.50;99.90
22984;DHT22;11658;48.908;9.140;2023-02-28T08:19:32;-0.40;99.90
22984;DHT22;11658;48.908;9.140;2023-02-28T08:21:58;-0.30;99.90
22984;DHT22;11658;48.908;9.140;2023-02-28T08:24:24;-0.30;99.90
22984;DHT22;11658;48.908;9.140;2023-02-28T08:26:50;-0.30;99.90
22984;DHT22;11658;48.908;9.140;2023-02-28T08:29:15;-0.30;99.90
22984;DHT22;11658;48.908;9.140;2023-02-28T08:31:41;-0.10;99.90
22984;DHT22;11658;48.908;9.140;2023-02-28T08:34:08;-0.20;99.90
22984;DHT22;11658;48.908;9.140;2023-02-28T08:36:34;-0.20;99.90
22984;DHT22;11658;48.908;9.140;2023-02-28T08:39:00;-0.10;99.90
22984;DHT22;11658;48.908;9.140;2023-02-28T08:41:26;0.00;99.90
22984;DHT22;11658;48.908;9.140;2023-02-28T08:43:52;-0.10;99.90
22984;DHT22;11658;48.908;9.140;2023-02-28T08:46:18;-0.10;99.90
22984;DHT22;11658;48.908;9.140;2023-02-28T08:48:44;-0.10;99.90
22984;DHT22;11658;48.908;9.140;2023-02-28T08:51:12;0.10;99.90
22984;DHT22;11658;48.908;9.140;2023-02-28T08:53:39;0.10;99.90
22984;DHT22;11658;48.908;9.140;2023-02-28T08:56:11;0.10;99.90
22984;DHT22;11658;48.908;9.140;2023-02-28T08:58:37;0.00;99.90
22984;DHT22;11658;48.908;9.140;2023-02-28T09:01:11;0.10;99.90
22984;DHT22;11658;48.908;9.140;2023-02-28T09:03:37;0.10;99.90
22984;DHT22;11658;48.908;9.140;2023-02-28T09:06:03;0.10;99.90
22984;DHT22;11658;48.908;9.140;2023-02-28T09:08:31;0.20;99.90
22984;DHT22;11658;48.908;9.140;2023-02-28T09:10:57;0.30;99.90
22984;DHT22;11658;48.908;9.140;2023-02-28T09:13:24;0.40;99.90
22984;DHT22;11658;48.908;9.140;2023-02-28T09:15:50;0.50;99.90
22984;DHT22;11658;48.908;9.140;2023-02-28T09:18:16;0.70;99.90
22984;DHT22;11658;48.908;9.140;2023-02-28T09:20:43;0.90;99.90
22984;DHT22;11658;48.908;9.140;2023-02-28T09:23:11;0.80;99.90
22984;DHT22;11658;48.908;9.140;2023-02-28T09:25:38;0.80;99.90
22984;DHT22;11658;48.908;9.140;2023-02-28T09:28:09;0.80;99.90
22984;DHT22;11658;48.908;9.140;2023-02-28T09:30:35;1.00;99.90
22984;DHT22;11658;48.908;9.140;2023-02-28T09:33:00;1.10;99.90
22984;DHT22;11658;48.908;9.140;2023-02-28T09:35:26;1.00;99.90
22984;DHT22;11658;48.908;9.140;2023-02-28T09:37:52;1.10;99.90
22984;DHT22;11658;48.908;9.140;2023-02-28T09:40:24;1.10;99.90
22984;DHT22;11658;48.908;9.140;2023-02-28T09:42:52;1.10;99.90
22984;DHT22;11658;48.908;9.140;2023-02-28T09:45:30;1.40;99.90
22984;DHT22;11658;48.908;9.140;2023-02-28T09:48:01;1.40;99.90
22984;DHT22;11658;48.908;9.140;2023-02-28T09:50:39;1.50;99.90
22984;DHT22;11658;48.908;9.140;2023-02-28T09:53:26;1.50;99.90
22984;DHT22;11658;48.908;9.140;2023-02-28T09:55:57;1.40;99.90
22984;DHT22;11658;48.908;9.140;2023-02-28T09:58:33;1.30;99.90
22984;DHT22;11658;48.908;9.140;2023-02-28T10:01:17;1.40;99.90
22984;DHT22;11658;48.908;9.140;2023-02-28T10:03:56;1.60;99.90
22984;DHT22;11658;48.908;9.140;2023-02-28T10:06:28;1.70;99.90
22984;DHT22;11658;48.908;9.140;2023-02-28T10:09:10;1.80;99.90
22984;DHT22;11658;48.908;9.140;2023-02-28T10:11:39;1.70;99.90
22984;DHT22;11658;48.908;9.140;2023-02-28T10:14:18;1.70;99.90
22984;DHT22;11658;48.908;9.140;2023-02-28T10:17:04;1.80;99.90
22984;DHT22;11658;48.908;9.140;2023-02-28T10:22:20;2.10;99.90
22984;DHT22;11658;48.908;9.140;2023-02-28T10:24:52;2.20;99.90
22984;DHT22;11658;48.908;9.140;2023-02-28T10:27:24;2.30;99.90
22984;DHT22;11658;48.908;9.140;2023-02-28T10:29:55;2.40;99.90
22984;DHT22;11658;48.908;9.140;2023-02-28T10:32:25;2.50;99.90
22984;DHT22;11658;48.908;9.140;2023-02-28T10:35:23;2.60;99.90
22984;DHT22;11658;48.908;9.140;2023-02-28T10:37:53;2.80;99.90
22984;DHT22;11658;48.908;9.140;2023-02-28T10:45:56;2.50;99.90
22984;DHT22;11658;48.908;9.140;2023-02-28T11:03:45;3.80;99.90
22984;DHT22;11658;48.908;9.140;2023-02-28T11:06:20;3.80;99.90
22984;DHT22;11658;48.908;9.140;2023-02-28T11:11:14;4.10;99.90
22984;DHT22;11658;48.908;9.140;2023-02-28T11:13:42;4.50;99.90
22984;DHT22;11658;48.908;9.140;2023-02-28T11:16:10;4.60;99.90
22984;DHT22;11658;48.908;9.140;2023-02-28T11:18:53;4.20;99.90
22984;DHT22;11658;48.908;9.140;2023-02-28T11:21:23;4.20;99.90
22984;DHT22;11658;48.908;9.140;2023-02-28T11:23:52;4.50;99.90
22984;DHT22;11658;48.908;9.140;2023-02-28T11:26:40;4.80;99.90
22984;DHT22;11658;48.908;9.140;2023-02-28T11:29:28;5.10;99.90
22984;DHT22;11658;48.908;9.140;2023-02-28T11:34:32;5.20;99.90
22984;DHT22;11658;48.908;9.140;2023-02-28T11:36:59;4.90;99.90
22984;DHT22;11658;48.908;9.140;2023-02-28T11:39:25;4.50;99.90
22984;DHT22;11658;48.908;9.140;2023-02-28T11:42:21;4.60;99.90
22984;DHT22;11658;48.908;9.140;2023-02-28T11:45:15;4.60;99.90
22984;DHT22;11658;48.908;9.140;2023-02-28T11:47:53;4.50;99.90
22984;DHT22;11658;48.908;9.140;2023-02-28T11:50:38;4.70;99.90
22984;DHT22;11658;48.908;9.140;2023-02-28T11:59:41;4.60;99.90
22984;DHT22;11658;48.908;9.140;2023-02-28T12:07:43;4.30;99.90
22984;DHT22;11658;48.908;9.140;2023-02-28T12:24:07;4.30;99.90
22984;DHT22;11658;48.908;9.140;2023-02-28T12:26:42;4.30;99.90
22984;DHT22;11658;48.908;9.140;2023-02-28T12:29:24;4.20;99.90
22984;DHT22;11658;48.908;9.140;2023-02-28T12:34:20;4.50;99.90
22984;DHT22;11658;48.908;9.140;2023-02-28T12:36:47;4.70;99.90
22984;DHT22;11658;48.908;9.140;2023-02-28T12:39:35;4.80;99.90
22984;DHT22;11658;48.908;9.140;2023-02-28T12:42:07;4.90;99.90
22984;DHT22;11658;48.908;9.140;2023-02-28T12:44:44;5.10;99.90
22984;DHT22;11658;48.908;9.140;2023-02-28T12:47:17;5.20;99.90
22984;DHT22;11658;48.908;9.140;2023-02-28T12:49:53;5.00;99.90
22984;DHT22;11658;48.908;9.140;2023-02-28T12:52:52;4.80;99.90
22984;DHT22;11658;48.908;9.140;2023-02-28T12:59:14;5.00;99.90
22984;DHT22;11658;48.908;9.140;2023-02-28T13:03:44;5.40;99.90
22984;DHT22;11658;48.908;9.140;2023-02-28T13:09:11;5.20;99.90
22984;DHT22;11658;48.908;9.140;2023-02-28T13:11:46;5.10;99.90
22984;DHT22;11658;48.908;9.140;2023-02-28T13:19:37;4.90;99.90
22984;DHT22;11658;48.908;9.140;2023-02-28T13:22:05;5.00;99.90
22984;DHT22;11658;48.908;9.140;2023-02-28T13:24:41;5.30;99.90
22984;DHT22;11658;48.908;9.140;2023-02-28T13:29:43;5.20;99.90
22984;DHT22;11658;48.908;9.140;2023-02-28T13:34:36;5.10;99.90
22984;DHT22;11658;48.908;9.140;2023-02-28T13:37:32;5.20;99.90
22984;DHT22;11658;48.908;9.140;2023-02-28T13:42:36;5.40;99.90
22984;DHT22;11658;48.908;9.140;2023-02-28T13:48:24;5.40;99.90
22984;DHT22;11658;48.908;9.140;2023-02-28T13:50:49;5.50;99.90
22984;DHT22;11658;48.908;9.140;2023-02-28T13:56:10;5.70;99.90
22984;DHT22;11658;48.908;9.140;2023-02-28T13:59:00;5.80;99.90
22984;DHT22;11658;48.908;9.140;2023-02-28T14:06:59;5.70;99.90
22984;DHT22;11658;48.908;9.140;2023-02-28T14:09:50;5.80;99.90
22984;DHT22;11658;48.908;9.140;2023-02-28T14:12:57;5.90;99.90
22984;DHT22;11658;48.908;9.140;2023-02-28T14:15:30;6.10;99.90
22984;DHT22;11658;48.908;9.140;2023-02-28T14:18:03;6.10;99.90
22984;DHT22;11658;48.908;9.140;2023-02-28T14:20:32;6.00;99.90
22984;DHT22;11658;48.908;9.140;2023-02-28T14:23:20;5.80;99.90
22984;DHT22;11658;48.908;9.140;2023-02-28T14:31:17;5.60;99.90
22984;DHT22;11658;48.908;9.140;2023-02-28T14:36:39;5.60;99.90
22984;DHT22;11658;48.908;9.140;2023-02-28T14:39:27;5.30;99.90
22984;DHT22;11658;48.908;9.140;2023-02-28T14:41:56;5.30;99.90
22984;DHT22;11658;48.908;9.140;2023-02-28T14:44:26;5.30;99.90
22984;DHT22;11658;48.908;9.140;2023-02-28T14:46:54;5.40;99.90
22984;DHT22;11658;48.908;9.140;2023-02-28T14:49:32;5.40;99.90
22984;DHT22;11658;48.908;9.140;2023-02-28T14:52:23;5.50;99.90
22984;DHT22;11658;48.908;9.140;2023-02-28T14:55:00;5.20;99.90
22984;DHT22;11658;48.908;9.140;2023-02-28T14:57:32;5.30;99.90
22984;DHT22;11658;48.908;9.140;2023-02-28T15:00:14;5.40;99.90
22984;DHT22;11658;48.908;9.140;2023-02-28T15:02:41;5.20;99.90
22984;DHT22;11658;48.908;9.140;2023-02-28T15:05:16;5.20;99.90
22984;DHT22;11658;48.908;9.140;2023-02-28T15:07:45;5.20;99.90
22984;DHT22;11658;48.908;9.140;2023-02-28T15:12:37;5.30;99.90
22984;DHT22;11658;48.908;9.140;2023-02-28T15:15:05;5.30;99.90
22984;DHT22;11658;48.908;9.140;2023-02-28T15:17:33;5.50;99.90
22984;DHT22;11658;48.908;9.140;2023-02-28T15:19:59;5.60;99.90
22984;DHT22;11658;48.908;9.140;2023-02-28T15:22:31;5.50;99.90
22984;DHT22;11658;48.908;9.140;2023-02-28T15:25:00;5.70;99.90
22984;DHT22;11658;48.908;9.140;2023-02-28T15:27:28;5.50;99.90
22984;DHT22;11658;48.908;9.140;2023-02-28T15:30:07;5.60;99.90
22984;DHT22;11658;48.908;9.140;2023-02-28T15:32:36;5.40;99.90
22984;DHT22;11658;48.908;9.140;2023-02-28T15:35:27;5.30;99.90
22984;DHT22;11658;48.908;9.140;2023-02-28T15:37:56;5.40;99.90
22984;DHT22;11658;48.908;9.140;2023-02-28T15:40:37;5.40;99.90
22984;DHT22;11658;48.908;9.140;2023-02-28T15:43:18;5.30;99.90
22984;DHT22;11658;48.908;9.140;2023-02-28T15:45:51;5.20;99.90
22984;DHT22;11658;48.908;9.140;2023-02-28T15:48:28;5.30;99.90
22984;DHT22;11658;48.908;9.140;2023-02-28T15:51:12;5.30;99.90
22984;DHT22;11658;48.908;9.140;2023-02-28T15:56:28;5.20;99.90
22984;DHT22;11658;48.908;9.140;2023-02-28T15:59:03;5.00;99.90
22984;DHT22;11658;48.908;9.140;2023-02-28T16:01:37;5.00;99.90
22984;DHT22;11658;48.908;9.140;2023-02-28T16:04:15;4.90;99.90
22984;DHT22;11658;48.908;9.140;2023-02-28T16:06:45;4.80;99.90
22984;DHT22;11658;48.908;9.140;2023-02-28T16:09:14;4.80;99.90
22984;DHT22;11658;48.908;9.140;2023-02-28T16:11:45;4.80;99.90
22984;DHT22;11658;48.908;9.140;2023-02-28T16:14:18;4.70;99.90
22984;DHT22;11658;48.908;9.140;2023-02-28T16:16:48;4.70;99.90
22984;DHT22;11658;48.908;9.140;2023-02-28T16:19:14;4.50;99.90
22984;DHT22;11658;48.908;9.140;2023-02-28T16:21:40;4.40;99.90
22984;DHT22;11658;48.908;9.140;2023-02-28T16:24:06;4.50;99.90
22984;DHT22;11658;48.908;9.140;2023-02-28T16:26:32;4.30;99.90
22984;DHT22;11658;48.908;9.140;2023-02-28T16:29:00;4.30;99.90
22984;DHT22;11658;48.908;9.140;2023-02-28T16:31:26;4.20;99.90
22984;DHT22;11658;48.908;9.140;2023-02-28T16:33:52;4.20;99.90
22984;DHT22;11658;48.908;9.140;2023-02-28T16:36:21;4.10;99.90
22984;DHT22;11658;48.908;9.140;2023-02-28T16:38:47;4.10;99.90
22984;DHT22;11658;48.908;9.140;2023-02-28T16:41:17;4.10;99.90
22984;DHT22;11658;48.908;9.140;2023-02-28T16:43:46;4.00;99.90
22984;DHT22;11658;48.908;9.140;2023-02-28T16:46:13;3.90;99.90
22984;DHT22;11658;48.908;9.140;2023-02-28T16:48:39;3.90;99.90
22984;DHT22;11658;48.908;9.140;2023-02-28T16:51:11;3.90;99.90
22984;DHT22;11658;48.908;9.140;2023-02-28T16:53:36;3.80;99.90
22984;DHT22;11658;48.908;9.140;2023-02-28T16:56:02;3.60;99.90
22984;DHT22;11658;48.908;9.140;2023-02-28T16:58:28;3.50;99.90
22984;DHT22;11658;48.908;9.140;2023-02-28T17:00:53;3.40;99.90
22984;DHT22;11658;48.908;9.140;2023-02-28T17:03:25;3.30;99.90
22984;DHT22;11658;48.908;9.140;2023-02-28T17:05:50;3.30;99.90
22984;DHT22;11658;48.908;9.140;2023-02-28T17:08:16;3.30;99.90
22984;DHT22;11658;48.908;9.140;2023-02-28T17:10:42;3.20;99.90
22984;DHT22;11658;48.908;9.140;2023-02-28T17:13:08;3.10;99.90
22984;DHT22;11658;48.908;9.140;2023-02-28T17:15:34;3.10;99.90
22984;DHT22;11658;48.908;9.140;2023-02-28T17:18:00;3.00;99.90
22984;DHT22;11658;48.908;9.140;2023-02-28T17:20:26;3.00;99.90
22984;DHT22;11658;48.908;9.140;2023-02-28T17:22:53;2.90;99.90
22984;DHT22;11658;48.908;9.140;2023-02-28T17:25:19;2.80;99.90
22984;DHT22;11658;48.908;9.140;2023-02-28T17:27:45;2.80;99.90
22984;DHT22;11658;48.908;9.140;2023-02-28T17:30:22;2.80;99.90
22984;DHT22;11658;48.908;9.140;2023-02-28T17:32:48;2.70;99.90
22984;DHT22;11658;48.908;9.140;2023-02-28T17:35:14;2.70;99.90
22984;DHT22;11658;48.908;9.140;2023-02-28T17:37:41;2.60;99.90
22984;DHT22;11658;48.908;9.140;2023-02-28T17:40:15;2.60;99.90
22984;DHT22;11658;48.908;9.140;2023-02-28T17:42:41;2.60;99.90
22984;DHT22;11658;48.908;9.140;2023-02-28T17:45:07;2.40;99.90
22984;DHT22;11658;48.908;9.140;2023-02-28T17:47:33;2.40;99.90
22984;DHT22;11658;48.908;9.140;2023-02-28T17:49:58;2.40;99.90
22984;DHT22;11658;48.908;9.140;2023-02-28T17:52:24;2.40;99.90
22984;DHT22;11658;48.908;9.140;2023-02-28T17:54:50;2.30;99.90
22984;DHT22;11658;48.908;9.140;2023-02-28T17:57:15;2.30;99.90
22984;DHT22;11658;48.908;9.140;2023-02-28T17:59:42;2.70;99.90
22984;DHT22;11658;48.908;9.140;2023-02-28T18:02:11;2.20;99.90
22984;DHT22;11658;48.908;9.140;2023-02-28T18:04:37;2.20;99.90
22984;DHT22;11658;48.908;9.140;2023-02-28T18:07:02;2.20;99.90
22984;DHT22;11658;48.908;9.140;2023-02-28T18:09:28;2.20;99.90
22984;DHT22;11658;48.908;9.140;2023-02-28T18:11:55;2.10;99.90
22984;DHT22;11658;48.908;9.140;2023-02-28T18:14:23;2.10;99.90
22984;DHT22;11658;48.908;9.140;2023-02-28T18:16:50;2.10;99.90
22984;DHT22;11658;48.908;9.140;2023-02-28T18:19:16;2.00;99.90
22984;DHT22;11658;48.908;9.140;2023-02-28T18:21:47;1.90;99.90
22984;DHT22;11658;48.908;9.140;2023-02-28T18:24:13;1.90;99.90
22984;DHT22;11658;48.908;9.140;2023-02-28T18:26:40;1.90;99.90
22984;DHT22;11658;48.908;9.140;2023-02-28T18:29:07;1.80;99.90
22984;DHT22;11658;48.908;9.140;2023-02-28T18:31:33;1.80;99.90
22984;DHT22;11658;48.908;9.140;2023-02-28T18:33:59;1.70;99.90
22984;DHT22;11658;48.908;9.140;2023-02-28T18:36:25;1.80;99.90
22984;DHT22;11658;48.908;9.140;2023-02-28T18:38:51;1.70;99.90
22984;DHT22;11658;48.908;9.140;2023-02-28T18:41:18;1.70;99.90
22984;DHT22;11658;48.908;9.140;2023-02-28T18:43:47;1.60;99.90
22984;DHT22;11658;48.908;9.140;2023-02-28T18:46:16;1.50;99.90
22984;DHT22;11658;48.908;9.140;2023-02-28T18:48:42;1.40;99.90
22984;DHT22;11658;48.908;9.140;2023-02-28T18:51:11;1.40;99.90
22984;DHT22;11658;48.908;9.140;2023-02-28T18:53:38;1.30;99.90
22984;DHT22;11658;48.908;9.140;2023-02-28T18:56:05;1.20;99.90
22984;DHT22;11658;48.908;9.140;2023-02-28T18:58:32;1.20;99.90
22984;DHT22;11658;48.908;9.140;2023-02-28T19:01:02;1.10;99.90
22984;DHT22;11658;48.908;9.140;2023-02-28T19:03:28;1.10;99.90
22984;DHT22;11658;48.908;9.140;2023-02-28T19:05:55;1.10;99.90
22984;DHT22;11658;48.908;9.140;2023-02-28T19:08:21;1.10;99.90
22984;DHT22;11658;48.908;9.140;2023-02-28T19:10:46;1.10;99.90
22984;DHT22;11658;48.908;9.140;2023-02-28T19:13:12;1.10;99.90
22984;DHT22;11658;48.908;9.140;2023-02-28T19:15:38;1.00;99.90
22984;DHT22;11658;48.908;9.140;2023-02-28T19:18:04;1.00;99.90
22984;DHT22;11658;48.908;9.140;2023-02-28T19:20:30;1.00;99.90
22984;DHT22;11658;48.908;9.140;2023-02-28T19:22:55;0.90;99.90
22984;DHT22;11658;48.908;9.140;2023-02-28T19:25:21;0.90;99.90
22984;DHT22;11658;48.908;9.140;2023-02-28T19:27:51;1.00;99.90
22984;DHT22;11658;48.908;9.140;2023-02-28T19:30:17;0.90;99.90
22984;DHT22;11658;48.908;9.140;2023-02-28T19:32:43;0.80;99.90
22984;DHT22;11658;48.908;9.140;2023-02-28T19:35:08;0.70;99.90
22984;DHT22;11658;48.908;9.140;2023-02-28T19:37:37;0.70;99.90
22984;DHT22;11658;48.908;9.140;2023-02-28T19:40:05;0.70;99.90
22984;DHT22;11658;48.908;9.140;2023-02-28T19:42:31;0.70;99.90
22984;DHT22;11658;48.908;9.140;2023-02-28T19:44:58;0.70;99.90
22984;DHT22;11658;48.908;9.140;2023-02-28T19:47:24;0.60;99.90
22984;DHT22;11658;48.908;9.140;2023-02-28T19:49:50;0.60;99.90
22984;DHT22;11658;48.908;9.140;2023-02-28T19:52:19;0.60;99.90
22984;DHT22;11658;48.908;9.140;2023-02-28T19:54:46;0.50;99.90
22984;DHT22;11658;48.908;9.140;2023-02-28T19:57:11;0.50;99.90
22984;DHT22;11658;48.908;9.140;2023-02-28T19:59:37;0.30;99.90
22984;DHT22;11658;48.908;9.140;2023-02-28T20:02:03;0.30;99.90
22984;DHT22;11658;48.908;9.140;2023-02-28T20:04:28;0.30;99.90
22984;DHT22;11658;48.908;9.140;2023-02-28T20:06:54;0.30;99.90
22984;DHT22;11658;48.908;9.140;2023-02-28T20:09:20;0.20;99.90
22984;DHT22;11658;48.908;9.140;2023-02-28T20:11:46;0.20;99.90
22984;DHT22;11658;48.908;9.140;2023-02-28T20:14:12;0.10;99.90
22984;DHT22;11658;48.908;9.140;2023-02-28T20:16:39;0.10;99.90
22984;DHT22;11658;48.908;9.140;2023-02-28T20:19:05;0.10;99.90
22984;DHT22;11658;48.908;9.140;2023-02-28T20:21:31;0.00;99.90
22984;DHT22;11658;48.908;9.140;2023-02-28T20:23:56;0.10;99.90
22984;DHT22;11658;48.908;9.140;2023-02-28T20:26:22;0.00;99.90
22984;DHT22;11658;48.908;9.140;2023-02-28T20:28:48;0.00;99.90
22984;DHT22;11658;48.908;9.140;2023-02-28T20:31:23;0.00;99.90
22984;DHT22;11658;48.908;9.140;2023-02-28T20:33:49;0.00;99.90
22984;DHT22;11658;48.908;9.140;2023-02-28T20:36:16;0.00;99.90
22984;DHT22;11658;48.908;9.140;2023-02-28T20:38:44;0.00;99.90
22984;DHT22;11658;48.908;9.140;2023-02-28T20:41:10;-0.10;99.90
22984;DHT22;11658;48.908;9.140;2023-02-28T20:43:36;-0.10;99.90
22984;DHT22;11658;48.908;9.140;2023-02-28T20:46:02;-0.10;99.90
22984;DHT22;11658;48.908;9.140;2023-02-28T20:48:29;0.00;99.90
22984;DHT22;11658;48.908;9.140;2023-02-28T20:50:56;0.10;99.90
22984;DHT22;11658;48.908;9.140;2023-02-28T20:53:23;0.10;99.90
22984;DHT22;11658;48.908;9.140;2023-02-28T20:58:30;0.00;99.90
22984;DHT22;11658;48.908;9.140;2023-02-28T21:01:04;0.00;99.90
22984;DHT22;11658;48.908;9.140;2023-02-28T21:03:29;0.00;99.90
22984;DHT22;11658;48.908;9.140;2023-02-28T21:05:59;0.00;99.90
22984;DHT22;11658;48.908;9.140;2023-02-28T21:08:25;-0.10;99.90
22984;DHT22;11658;48.908;9.140;2023-02-28T21:10:51;-0.10;99.90
22984;DHT22;11658;48.908;9.140;2023-02-28T21:13:17;-0.10;99.90
22984;DHT22;11658;48.908;9.140;2023-02-28T21:15:42;-0.20;99.90
22984;DHT22;11658;48.908;9.140;2023-02-28T21:18:08;-0.10;99.90
22984;DHT22;11658;48.908;9.140;2023-02-28T21:20:33;-0.10;99.90
22984;DHT22;11658;48.908;9.140;2023-02-28T21:22:59;-0.10;99.90
22984;DHT22;11658;48.908;9.140;2023-02-28T21:25:25;-0.20;99.90
22984;DHT22;11658;48.908;9.140;2023-02-28T21:27:50;-0.20;99.90
22984;DHT22;11658;48.908;9.140;2023-02-28T21:30:20;-0.20;99.90
22984;DHT22;11658;48.908;9.140;2023-02-28T21:32:45;-0.20;99.90
22984;DHT22;11658;48.908;9.140;2023-02-28T21:35:12;-0.20;99.90
22984;DHT22;11658;48.908;9.140;2023-02-28T21:37:38;-0.20;99.90
22984;DHT22;11658;48.908;9.140;2023-02-28T21:40:03;-0.20;99.90